createdAt,value
2016-06-15T00:00:32.659Z,0
2016-06-15T00:03:46.575Z,0
2016-06-15T00:07:00.756Z,0
2016-06-15T00:10:14.675Z,0
2016-06-15T00:13:26.402Z,0
2016-06-15T00:16:40.584Z,0
2016-06-15T00:20:00.499Z,0
2016-06-15T00:23:04.028Z,0
2016-06-15T00:26:17.833Z,0
2016-06-15T00:29:31.858Z,0
2016-06-15T00:32:45.852Z,0
2016-06-15T00:35:59.673Z,0
2016-06-15T00:39:13.827Z,0
2016-06-15T00:42:28.179Z,0
2016-06-15T00:45:44.470Z,0
2016-06-15T00:49:02.479Z,0
2016-06-15T00:52:05.975Z,0
2016-06-15T00:55:19.860Z,0
2016-06-15T00:58:33.916Z,0
2016-06-15T01:01:48.331Z,0
2016-06-15T01:05:02.625Z,0
2016-06-15T01:08:16.870Z,0
2016-06-15T01:11:30.801Z,0
2016-06-15T01:14:44.662Z,0
2016-06-15T01:17:58.801Z,0
2016-06-15T01:21:13.051Z,0
2016-06-15T01:24:27.217Z,0
2016-06-15T01:27:41.321Z,0
2016-06-15T01:31:01.548Z,0
2016-06-15T01:34:04.949Z,0
2016-06-15T01:37:19.086Z,0
2016-06-15T01:40:33.282Z,0
2016-06-15T01:43:47.697Z,0
2016-06-15T01:47:01.644Z,0
2016-06-15T01:50:16.110Z,0
2016-06-15T01:53:29.760Z,0
2016-06-15T01:56:43.815Z,1
2016-06-15T02:00:03.638Z,1
2016-06-15T02:03:06.931Z,2
2016-06-15T02:06:21.034Z,3
2016-06-15T02:09:35.262Z,4
2016-06-15T02:12:55.553Z,6
2016-06-15T02:15:58.874Z,8
2016-06-15T02:19:12.730Z,12
2016-06-15T02:22:26.631Z,17
2016-06-15T02:25:40.795Z,23
2016-06-15T02:29:00.930Z,30
2016-06-15T02:32:04.157Z,38
2016-06-15T02:35:18.904Z,46
2016-06-15T02:38:29.866Z,54
2016-06-15T02:41:43.767Z,70
2016-06-15T02:45:03.792Z,90
2016-06-15T02:48:07.066Z,123
2016-06-15T02:51:20.938Z,164
2016-06-15T02:54:35.073Z,203
2016-06-15T02:57:48.987Z,239
2016-06-15T03:01:03.028Z,279
2016-06-15T03:04:17.384Z,334
2016-06-15T03:07:31.456Z,391
2016-06-15T03:10:45.339Z,463
2016-06-15T03:13:59.349Z,406
2016-06-15T03:17:13.378Z,388
2016-06-15T03:20:27.230Z,403
2016-06-15T03:23:38.521Z,467
2016-06-15T03:26:57.874Z,539
2016-06-15T03:30:01.164Z,578
2016-06-15T03:33:15.317Z,654
2016-06-15T03:36:29.420Z,730
2016-06-15T03:39:43.023Z,792
2016-06-15T03:43:03.391Z,884
2016-06-15T03:46:06.839Z,937
2016-06-15T03:49:20.773Z,952
2016-06-15T03:52:34.968Z,990
2016-06-15T03:55:55.244Z,1089
2016-06-15T03:59:04.504Z,1338
2016-06-15T04:02:07.279Z,1568
2016-06-15T04:05:21.025Z,1808
2016-06-15T04:08:34.628Z,1848
2016-06-15T04:11:48.418Z,2046
2016-06-15T04:15:02.286Z,2251
2016-06-15T04:18:16.456Z,2531
2016-06-15T04:21:30.636Z,2360
2016-06-15T04:24:44.646Z,2059
2016-06-15T04:28:01.842Z,2161
2016-06-15T04:31:05.102Z,2314
2016-06-15T04:34:19.333Z,2743
2016-06-15T04:37:33.373Z,3007
2016-06-15T04:40:47.695Z,2859
2016-06-15T04:44:01.844Z,2464
2016-06-15T04:47:15.872Z,2026
2016-06-15T04:50:30.194Z,1909
2016-06-15T04:53:44.578Z,2033
2016-06-15T04:57:04.837Z,2212
2016-06-15T05:00:08.238Z,2260
2016-06-15T05:03:21.422Z,1961
2016-06-15T05:06:34.759Z,2171
2016-06-15T05:09:48.737Z,2504
2016-06-15T05:13:03.122Z,3267
2016-06-15T05:16:17.321Z,4907
2016-06-15T05:19:31.690Z,6477
2016-06-15T05:22:46.027Z,7954
2016-06-15T05:26:00.427Z,7579
2016-06-15T05:29:14.861Z,5836
2016-06-15T05:32:29.136Z,3916
2016-06-15T05:35:43.599Z,3172
2016-06-15T05:39:03.997Z,3014
2016-06-15T05:42:07.476Z,2730
2016-06-15T05:45:21.676Z,2633
2016-06-15T05:48:35.670Z,2481
2016-06-15T05:51:55.881Z,2508
2016-06-15T05:55:04.954Z,2619
2016-06-15T05:58:07.697Z,2386
2016-06-15T06:01:21.959Z,2616
2016-06-15T06:04:35.891Z,2565
2016-06-15T06:07:55.869Z,2392
2016-06-15T06:11:04.378Z,2215
2016-06-15T06:14:07.169Z,2157
2016-06-15T06:17:21.415Z,2398
2016-06-15T06:20:35.831Z,2687
2016-06-15T06:23:56.527Z,3205
2016-06-15T06:26:59.958Z,3239
2016-06-15T06:30:12.859Z,3110
2016-06-15T06:33:26.699Z,2969
2016-06-15T06:36:39.630Z,2674
2016-06-15T06:39:59.514Z,2638
2016-06-15T06:43:03.179Z,2984
2016-06-15T06:46:17.206Z,3437
2016-06-15T06:49:28.920Z,3910
2016-06-15T06:52:41.897Z,4212
2016-06-15T06:56:02.282Z,4065
2016-06-15T06:59:05.228Z,4128
2016-06-15T07:02:19.397Z,4114
2016-06-15T07:05:33.281Z,3828
2016-06-15T07:08:47.587Z,3521
2016-06-15T07:12:00.441Z,3301
2016-06-15T07:15:14.390Z,2671
2016-06-15T07:18:28.259Z,2733
2016-06-15T07:21:40.159Z,3025
2016-06-15T07:24:59.620Z,2984
2016-06-15T07:28:02.755Z,2757
2016-06-15T07:31:16.861Z,2716
2016-06-15T07:34:31.089Z,3110
2016-06-15T07:37:45.254Z,3962
2016-06-15T07:40:59.608Z,4716
2016-06-15T07:44:13.820Z,4870
2016-06-15T07:47:28.238Z,4646
2016-06-15T07:50:42.607Z,4395
2016-06-15T07:54:03.209Z,4025
2016-06-15T07:57:07.172Z,3950
2016-06-15T08:00:21.341Z,3765
2016-06-15T08:03:35.725Z,3510
2016-06-15T08:06:56.266Z,3860
2016-06-15T08:09:59.900Z,4184
2016-06-15T08:13:14.330Z,4948
2016-06-15T08:16:28.391Z,5022
2016-06-15T08:19:42.836Z,5051
2016-06-15T08:23:03.673Z,4734
2016-06-15T08:26:06.808Z,4100
2016-06-15T08:29:20.602Z,3764
2016-06-15T08:32:34.783Z,2969
2016-06-15T08:35:50.949Z,3989
2016-06-15T08:39:03.566Z,4417
2016-06-15T08:42:17.829Z,3617
2016-06-15T08:45:32.261Z,3163
2016-06-15T08:48:46.550Z,1169
2016-06-15T08:52:00.465Z,1046
2016-06-15T08:55:14.491Z,1373
2016-06-15T08:58:28.566Z,1295
2016-06-15T09:01:42.857Z,1733
2016-06-15T09:05:03.006Z,1685
2016-06-15T09:08:06.437Z,2696
2016-06-15T09:11:18.524Z,2836
2016-06-15T09:17:49.728Z,3592
2016-06-15T09:20:58.378Z,3758
2016-06-15T09:24:01.823Z,3455
2016-06-15T09:27:16.302Z,3641
2016-06-15T09:30:30.446Z,3617
2016-06-15T09:33:44.721Z,3678
2016-06-15T09:37:03.654Z,3642
2016-06-15T09:40:07.102Z,3719
2016-06-15T09:43:21.376Z,3951
2016-06-15T09:46:35.745Z,3973
2016-06-15T09:49:56.241Z,4018
2016-06-15T09:53:00.017Z,3761
2016-06-15T09:56:14.557Z,4119
2016-06-15T09:59:26.723Z,3810
2016-06-15T10:02:41.153Z,3877
2016-06-15T10:06:01.764Z,4096
2016-06-15T10:09:05.428Z,4480
2016-06-15T10:12:19.871Z,4411
2016-06-15T10:15:32.472Z,4774
2016-06-15T10:18:46.122Z,5347
2016-06-15T10:22:00.644Z,5692
2016-06-15T10:25:15.110Z,5886
2016-06-15T10:28:29.464Z,6416
2016-06-15T10:31:43.927Z,6818
2016-06-15T10:35:04.363Z,6997
2016-06-15T10:38:08.388Z,7151
2016-06-15T10:41:23.304Z,7334
2016-06-15T10:44:36.344Z,7422
2016-06-15T10:51:06.394Z,7561
2016-06-15T10:57:28.806Z,7421
2016-06-15T11:00:43.566Z,7180
2016-06-15T11:04:03.669Z,7319
2016-06-15T11:07:07.413Z,7672
2016-06-15T11:10:21.518Z,7373
2016-06-15T11:13:35.622Z,7178
2016-06-15T11:16:56.099Z,7277
2016-06-15T11:19:59.796Z,7193
2016-06-15T11:23:14.289Z,7200
2016-06-15T11:26:28.693Z,6599
2016-06-15T11:29:46.139Z,6175
2016-06-15T11:33:00.867Z,5712
2016-06-15T11:36:04.502Z,5099
2016-06-15T11:39:18.716Z,5042
2016-06-15T11:42:33.258Z,5820
2016-06-15T11:45:47.751Z,5813
2016-06-15T11:49:02.104Z,6121
2016-06-15T11:52:16.101Z,5723
2016-06-15T11:55:30.406Z,5011
2016-06-15T11:58:44.916Z,5338
2016-06-15T12:02:05.348Z,5556
2016-06-15T12:05:09.044Z,5004
2016-06-15T12:08:23.338Z,3016
2016-06-15T12:11:37.675Z,2081
2016-06-15T12:14:57.919Z,2452
2016-06-15T12:18:01.396Z,3912
2016-06-15T12:21:16.015Z,5128
2016-06-15T12:24:30.418Z,6921
2016-06-15T12:27:44.646Z,7046
2016-06-15T12:31:05.249Z,6398
2016-06-15T12:34:08.929Z,4139
2016-06-15T12:37:23.208Z,3554
2016-06-15T12:40:37.483Z,3838
2016-06-15T12:43:57.820Z,2923
2016-06-15T12:47:01.470Z,1596
2016-06-15T12:50:15.651Z,854
2016-06-15T12:53:30.163Z,1891
2016-06-15T12:56:44.328Z,4032
2016-06-15T13:00:02.885Z,5673
2016-06-15T13:03:06.457Z,6965
2016-06-15T13:06:20.828Z,8351
2016-06-15T13:09:35.182Z,8098
2016-06-15T13:12:49.597Z,8393
2016-06-15T13:16:04.059Z,7196
2016-06-15T13:19:18.693Z,5995
2016-06-15T13:22:32.940Z,6552
2016-06-15T13:25:46.950Z,4584
2016-06-15T13:29:01.270Z,4059
2016-06-15T13:32:15.686Z,4120
2016-06-15T13:35:30.105Z,4722
2016-06-15T13:38:44.536Z,5225
2016-06-15T13:42:05.045Z,6818
2016-06-15T13:45:08.712Z,6916
2016-06-15T13:48:23.127Z,7995
2016-06-15T13:51:37.575Z,8877
2016-06-15T13:54:57.898Z,7745
2016-06-15T13:58:01.594Z,7765
2016-06-15T14:01:15.853Z,7398
2016-06-15T14:04:30.460Z,7139
2016-06-15T14:07:44.907Z,7104
2016-06-15T14:11:05.353Z,7091
2016-06-15T14:14:08.956Z,7559
2016-06-15T14:17:23.482Z,7761
2016-06-15T14:20:37.853Z,7744
2016-06-15T14:23:56.971Z,7505
2016-06-15T14:27:00.433Z,7183
2016-06-15T14:30:15.412Z,6942
2016-06-15T14:33:28.987Z,5707
2016-06-15T14:36:43.449Z,5236
2016-06-15T14:40:04.005Z,4966
2016-06-15T14:43:07.607Z,5273
2016-06-15T14:46:21.789Z,4723
2016-06-15T14:49:36.098Z,4643
2016-06-15T14:52:57.154Z,4668
2016-06-15T14:56:00.102Z,4379
2016-06-15T14:59:14.470Z,4528
2016-06-15T15:02:28.666Z,4287
2016-06-15T15:05:43.007Z,4671
2016-06-15T15:09:03.203Z,4920
2016-06-15T15:12:06.822Z,4893
2016-06-15T15:15:21.206Z,5402
2016-06-15T15:18:35.501Z,4777
2016-06-15T15:21:49.775Z,4443
2016-06-15T15:25:04.222Z,3646
2016-06-15T15:28:18.965Z,2665
2016-06-15T15:31:33.380Z,2569
2016-06-15T15:34:47.534Z,2432
2016-06-15T15:38:01.793Z,2452
2016-06-15T15:41:16.161Z,2588
2016-06-15T15:44:30.295Z,2792
2016-06-15T15:47:44.495Z,2778
2016-06-15T15:51:04.973Z,3046
2016-06-15T15:54:08.623Z,2675
2016-06-15T15:57:22.992Z,2577
2016-06-15T16:00:37.379Z,2489
2016-06-15T16:03:57.561Z,2388
2016-06-15T16:07:01.179Z,3302
2016-06-15T16:10:15.704Z,3951
2016-06-15T16:13:30.244Z,3745
2016-06-15T16:16:44.787Z,3271
2016-06-15T16:20:05.266Z,2511
2016-06-15T16:23:08.775Z,2274
2016-06-15T16:26:23.065Z,2386
2016-06-15T16:29:37.422Z,2154
2016-06-15T16:32:57.462Z,1929
2016-06-15T16:36:01.002Z,1920
2016-06-15T16:39:15.434Z,2023
2016-06-15T16:42:29.708Z,2242
2016-06-15T16:45:44.252Z,2342
2016-06-15T16:49:04.495Z,2244
2016-06-15T16:52:08.098Z,1643
2016-06-15T16:55:22.373Z,1340
2016-06-15T16:58:36.789Z,1652
2016-06-15T17:01:57.082Z,1948
2016-06-15T17:05:00.749Z,1732
2016-06-15T17:08:17.476Z,1406
2016-06-15T17:11:29.687Z,1453
2016-06-15T17:14:44.122Z,1799
2016-06-15T17:18:04.397Z,1743
2016-06-15T17:21:08.078Z,1737
2016-06-15T17:24:22.353Z,1880
2016-06-15T17:27:36.878Z,1450
2016-06-15T17:30:57.250Z,553
2016-06-15T17:34:01.041Z,355
2016-06-15T17:37:15.236Z,276
2016-06-15T17:40:29.808Z,123
2016-06-15T17:43:44.149Z,29
2016-06-15T17:47:01.689Z,42
2016-06-15T17:50:05.214Z,58
2016-06-15T17:53:19.271Z,81
2016-06-15T17:56:33.358Z,81
2016-06-15T17:59:47.385Z,80
2016-06-15T18:03:05.207Z,76
2016-06-15T18:06:08.451Z,75
2016-06-15T18:09:22.398Z,78
2016-06-15T18:12:36.407Z,85
2016-06-15T18:15:56.295Z,88
2016-06-15T18:19:05.694Z,89
2016-06-15T18:22:08.922Z,81
2016-06-15T18:25:22.728Z,75
2016-06-15T18:28:36.879Z,72
2016-06-15T18:31:56.781Z,71
2016-06-15T18:35:06.070Z,384
2016-06-15T18:38:09.330Z,384
2016-06-15T18:41:23.247Z,384
2016-06-15T18:44:37.178Z,384
2016-06-15T18:47:57.283Z,384
2016-06-15T18:51:00.495Z,384
2016-06-15T18:54:14.662Z,384
2016-06-15T18:57:28.420Z,384
2016-06-15T19:00:42.508Z,96
2016-06-15T19:04:00.395Z,109
2016-06-15T19:07:03.607Z,124
2016-06-15T19:10:17.579Z,126
2016-06-15T19:13:31.277Z,107
2016-06-15T19:16:44.817Z,85
2016-06-15T19:20:04.355Z,68
2016-06-15T19:23:07.489Z,55
2016-06-15T19:26:21.245Z,45
2016-06-15T19:29:32.213Z,38
2016-06-15T19:32:46.132Z,29
2016-06-15T19:36:03.083Z,24
2016-06-15T19:39:06.501Z,19
2016-06-15T19:42:20.057Z,16
2016-06-15T19:45:34.034Z,13
2016-06-15T19:48:49.687Z,10
2016-06-15T19:52:06.041Z,7
2016-06-15T19:55:09.190Z,4
2016-06-15T19:58:21.060Z,3
2016-06-15T20:01:34.115Z,2
2016-06-15T20:04:48.143Z,2
2016-06-15T20:08:02.293Z,1
2016-06-15T20:11:15.974Z,1
2016-06-15T20:14:30.281Z,0
2016-06-15T20:17:43.743Z,0
2016-06-15T20:21:03.786Z,0
2016-06-15T20:24:06.826Z,0
2016-06-15T20:27:20.851Z,0
2016-06-15T20:30:34.251Z,0
2016-06-15T20:33:48.370Z,0
2016-06-15T20:37:02.397Z,0
2016-06-15T20:40:16.048Z,0
2016-06-15T20:43:29.307Z,0
2016-06-15T20:46:43.160Z,0
2016-06-15T20:50:02.859Z,0
2016-06-15T20:53:06.118Z,0
2016-06-15T20:56:19.893Z,0
2016-06-15T20:59:33.559Z,0
2016-06-15T21:02:44.304Z,0
2016-06-15T21:06:01.596Z,0
2016-06-15T21:09:04.684Z,0
2016-06-15T21:12:18.599Z,0
2016-06-15T21:15:30.327Z,0
2016-06-15T21:18:43.883Z,0
2016-06-15T21:22:03.927Z,0
2016-06-15T21:25:06.967Z,0
2016-06-15T21:28:21.101Z,0
2016-06-15T21:31:34.814Z,0
2016-06-15T21:34:49.026Z,0
2016-06-15T21:38:02.835Z,0
2016-06-15T21:41:16.516Z,0
2016-06-15T21:44:30.494Z,0
2016-06-15T21:47:43.972Z,0
2016-06-15T21:51:01.172Z,0
2016-06-15T21:54:04.213Z,0
2016-06-15T21:57:18.034Z,0
2016-06-15T22:00:31.293Z,0
2016-06-15T22:03:45.022Z,0
2016-06-15T22:07:05.268Z,0
2016-06-15T22:10:08.152Z,0
2016-06-15T22:13:21.411Z,0
2016-06-15T22:16:35.062Z,0
2016-06-15T22:19:48.836Z,0
2016-06-15T22:23:02.723Z,0
2016-06-15T22:26:16.748Z,0
2016-06-15T22:29:30.336Z,0
2016-06-15T22:32:44.158Z,0
2016-06-15T22:36:03.685Z,0
2016-06-15T22:39:06.835Z,0
2016-06-15T22:42:18.750Z,0
2016-06-15T22:45:31.026Z,0
2016-06-15T22:48:44.910Z,0
2016-06-15T22:52:04.687Z,0
2016-06-15T22:55:07.510Z,0
2016-06-15T22:58:21.269Z,0
2016-06-15T23:01:34.981Z,0
2016-06-15T23:04:48.349Z,0
2016-06-15T23:08:04.127Z,0
2016-06-15T23:11:15.589Z,0
2016-06-15T23:14:29.255Z,0
2016-06-15T23:17:41.999Z,0
2016-06-15T23:21:01.651Z,0
2016-06-15T23:24:04.427Z,0
2016-06-15T23:27:18.327Z,0
2016-06-15T23:30:32.664Z,0
2016-06-15T23:33:46.846Z,0
2016-06-15T23:37:01.201Z,0
2016-06-15T23:40:15.601Z,0
2016-06-15T23:43:29.485Z,0
2016-06-15T23:46:42.072Z,0
2016-06-15T23:50:02.381Z,0
2016-06-15T23:53:05.687Z,0
2016-06-15T23:56:19.509Z,0
2016-06-15T23:59:33.504Z,0
